CheckWX is a tool to help pilots better visualize weather data.  It is not intended as a substitute for an official pre-flight weather briefing.

12:22:42 UTC

PTPN TAF
Pohnpei International Airport
Pohnpei Island, Federated States of Micronesia
PTPN 220526Z 2206/2306 08007KT P6SM SCT018 SCT130

Mar-22@
06:00 UTC

Mar-22 @ 06:00 UTC

Mar-23@
06:00 UTC

Mar-23 @ 06:00 UTC

PTPN 220526Z 2206/2306 08007KT P6SM SCT018 SCT130
Wind
  • 080° at 7 KTS
Cloud Levels
  • Scattered at 1,800' AGL
  • Scattered at 13,000' AGL